logo
Search for airport 
image banner adimage banner adimage banner ad
image banner ad

KPBG - Plattsburgh Intl

Located in Plattsburgh, United States

ICAO - PBG, IATA - PBG

Data provided by Airmate  

General information

Coordinates: N44°39'3" W73°28'5"
Elevation is 234 feet MSL.
Magnetic variation is -15° East
View others Airports in New York

Operational data

Special qualification required
Current time UTC:
Current local time:
Weather
METAR: KPBG 220653Z AUTO 00000KT 9SM CLR 16/15 A2983 RMK AO2 SLP101 T01560150
TAF: KPBG 220539Z 2206/2306 13004KT P6SM FEW090 FM221500 15007KT P6SM SCT100 FM222200 16007KT P6SM VCSH SCT160
View NOTAMs / SUP AIP / TFR affecting this airport [VIEW]
Communications frequencies: [VIEW]

Runways:

RWY identifierQFULength (ft)Width (ft)SurfaceLDA (ft)
17157°11759200ASPH11759
35337°11759200ASPH11759

Airport contact information

Address: Plattsburgh United States

Satellite view of KPBG